Time;durP1;ratioP1;P1;durP2;ratioP2;P2;SDS_P1;SDS_P2;PMS_P1;PMS_P2;Temp;Humidity;BMP_temperature;BMP_pressure;BME280_temperature;BME280_humidity;BME280_pressure;Samples;Min_cycle;Max_cycle;Signal;HPM_P1;HPM_P2
2022/09/25 00:01:21;;;;;;;28.03;18.27;;;;;;;6.55;87.69;98700.09;2077026;86;21395;-85
2022/09/25 00:04:21;;;;;;;27.77;17.63;;;;;;;6.55;88.53;98694.50;2077141;86;20935;-85
2022/09/25 00:07:22;;;;;;;23.77;16.13;;;;;;;6.59;88.61;98694.16;2077045;86;20917;-85
2022/09/25 00:10:24;;;;;;;29.70;17.70;;;;;;;6.61;88.20;98693.77;2077253;86;20998;-85
2022/09/25 00:13:22;;;;;;;24.30;17.10;;;;;;;6.59;88.21;98687.25;2077384;86;20924;-85
2022/09/25 00:16:23;;;;;;;23.23;17.17;;;;;;;6.57;88.09;98690.22;2077263;86;20931;-85
2022/09/25 00:22:42;;;;;;;23.20;16.37;;;;;;;6.59;88.35;98694.16;2077117;86;20988;-85
2022/09/25 00:25:45;;;;;;;26.67;16.13;;;;;;;6.56;87.99;98700.56;2076992;86;20934;-85
2022/09/25 00:28:43;;;;;;;26.33;17.67;;;;;;;6.54;87.87;98699.64;2077341;86;20967;-85
2022/09/25 00:31:43;;;;;;;21.33;16.23;;;;;;;6.50;88.21;98693.50;2092034;85;20992;-85
2022/09/25 00:34:44;;;;;;;22.47;16.73;;;;;;;6.49;88.16;98693.05;2099959;85;20941;-85
2022/09/25 00:37:44;;;;;;;31.50;18.50;;;;;;;6.50;88.08;98688.73;2100069;85;20955;-85
2022/09/25 00:40:44;;;;;;;28.97;17.33;;;;;;;6.44;88.21;98688.58;2099908;85;21011;-85
2022/09/25 00:43:45;;;;;;;28.60;18.47;;;;;;;6.44;88.13;98695.94;2100067;85;20947;-85
2022/09/25 00:46:45;;;;;;;29.17;17.27;;;;;;;6.46;88.74;98694.27;2099089;85;21016;-85
2022/09/25 00:49:48;;;;;;;23.30;16.40;;;;;;;6.47;88.37;98694.72;2077632;85;20992;-85
2022/09/25 00:52:48;;;;;;;28.93;17.90;;;;;;;6.47;88.46;98688.66;2099686;85;20985;-85
2022/09/25 00:55:48;;;;;;;25.43;17.37;;;;;;;6.45;88.68;98692.51;2099562;85;20948;-85
2022/09/25 00:58:49;;;;;;;29.73;18.73;;;;;;;6.44;88.96;98692.05;2099543;85;20949;-85
2022/09/25 01:01:49;;;;;;;27.03;18.93;;;;;;;6.46;89.09;98685.61;2099796;85;21011;-84
2022/09/25 01:04:50;;;;;;;26.20;18.60;;;;;;;6.47;89.23;98683.47;2099635;85;20960;-84
2022/09/25 01:07:50;;;;;;;26.23;17.10;;;;;;;6.42;88.57;98679.88;2099314;85;20981;-86
2022/09/25 01:10:50;;;;;;;25.43;17.60;;;;;;;6.39;88.76;98678.97;2099549;85;21044;-85
2022/09/25 01:13:51;;;;;;;27.83;19.63;;;;;;;6.45;89.72;98679.96;2099529;85;20976;-85
2022/09/25 01:16:51;;;;;;;28.93;19.40;;;;;;;6.50;89.73;98683.55;2099701;85;20956;-85
2022/09/25 01:19:52;;;;;;;28.77;18.60;;;;;;;6.46;89.30;98679.12;2099892;85;21144;-85
2022/09/25 01:22:52;;;;;;;27.13;17.77;;;;;;;6.44;89.11;98678.20;2100058;85;20976;-85
2022/09/25 01:25:53;;;;;;;27.23;17.03;;;;;;;6.38;89.15;98677.21;2099878;85;20925;-85
2022/09/25 01:28:53;;;;;;;27.70;16.87;;;;;;;6.31;88.88;98668.82;2100521;85;20992;-86
2022/09/25 01:31:53;;;;;;;26.37;18.70;;;;;;;6.26;88.87;98667.83;2075506;85;20983;-85
2022/09/25 01:34:54;;;;;;;26.53;17.67;;;;;;;6.27;89.78;98666.98;2060391;86;20932;-86
2022/09/25 01:37:54;;;;;;;27.80;19.80;;;;;;;6.32;89.71;98664.09;2060830;86;20972;-85
2022/09/25 01:40:54;;;;;;;28.53;20.30;;;;;;;6.36;90.09;98665.92;2060574;87;21336;-85
2022/09/25 01:43:55;;;;;;;28.50;19.17;;;;;;;6.34;89.77;98668.90;2061542;86;20940;-85
2022/09/25 01:46:55;;;;;;;26.40;19.30;;;;;;;6.30;89.62;98668.36;2061634;87;20944;-85
2022/09/25 01:49:56;;;;;;;28.97;19.53;;;;;;;6.25;89.89;98666.49;2061766;86;21353;-85
2022/09/25 01:52:56;;;;;;;24.50;17.67;;;;;;;6.21;89.66;98664.23;2061975;87;20927;-85
2022/09/25 01:55:56;;;;;;;25.93;18.87;;;;;;;6.16;88.99;98658.06;2061578;86;20905;-85
2022/09/25 01:58:57;;;;;;;24.90;18.60;;;;;;;6.14;89.47;98664.91;2061355;86;20920;-85
2022/09/25 02:01:57;;;;;;;29.60;19.77;;;;;;;6.13;89.59;98659.27;2060906;86;21043;-84
2022/09/25 02:04:59;;;;;;;30.53;19.10;;;;;;;6.17;90.11;98661.52;2061491;87;20936;-86
2022/09/25 02:07:59;;;;;;;32.13;20.43;;;;;;;6.20;90.06;98666.38;2061308;86;20968;-84
2022/09/25 02:10:58;;;;;;;26.77;18.90;;;;;;;6.18;89.40;98666.75;2061022;87;21027;-84
2022/09/25 02:13:59;;;;;;;30.53;19.17;;;;;;;6.15;89.82;98678.33;2060860;87;20912;-84
2022/09/25 02:17:00;;;;;;;22.70;16.60;;;;;;;6.10;89.08;98677.33;2060691;87;20932;-84
2022/09/25 02:23:19;;;;;;;25.70;18.30;;;;;;;6.00;88.81;98690.84;2060677;87;20932;-83
2022/09/25 02:26:19;;;;;;;26.43;18.77;;;;;;;5.96;88.80;98682.53;2062264;86;20945;-83
2022/09/25 02:29:19;;;;;;;25.50;18.40;;;;;;;5.89;88.76;98672.80;2061640;86;20944;-83
2022/09/25 02:32:20;;;;;;;23.17;17.40;;;;;;;5.85;88.71;98665.78;2056560;86;20952;-83
2022/09/25 02:35:20;;;;;;;34.80;18.80;;;;;;;5.78;88.86;98663.86;2055974;86;20976;-84
2022/09/25 02:38:20;;;;;;;31.83;18.73;;;;;;;5.76;89.39;98664.69;2073621;86;20944;-84
2022/09/25 02:41:21;;;;;;;27.47;18.50;;;;;;;5.79;89.26;98656.55;2061098;85;21039;-83
2022/09/25 02:44:21;;;;;;;29.30;19.53;;;;;;;5.75;88.91;98660.34;2055112;86;20932;-83
2022/09/25 02:47:22;;;;;;;27.67;19.83;;;;;;;5.76;89.76;98658.22;2055384;86;20953;-84
2022/09/25 02:50:22;;;;;;;25.73;19.30;;;;;;;5.76;89.76;98651.73;2054423;86;20968;-83
2022/09/25 02:53:23;;;;;;;25.43;18.03;;;;;;;5.74;90.38;98653.83;2055030;86;20968;-83
2022/09/25 02:56:23;;;;;;;30.93;20.00;;;;;;;5.69;89.65;98648.52;2054988;86;20956;-83
2022/09/25 02:59:23;;;;;;;27.57;20.37;;;;;;;5.68;90.24;98648.06;2055967;86;20972;-83
2022/09/25 03:02:24;;;;;;;31.70;20.97;;;;;;;5.69;90.66;98638.58;2054821;86;20969;-83
2022/09/25 03:05:30;;;;;;;27.90;19.63;;;;;;;5.73;90.47;98641.72;2054974;87;20901;-84
2022/09/25 03:08:36;;;;;;;28.40;18.17;;;;;;;5.73;90.92;98643.01;2056513;86;20919;-84
2022/09/25 03:11:41;;;;;;;26.23;17.53;;;;;;;5.74;89.87;98645.64;2054960;86;20992;-83
2022/09/25 03:14:40;;;;;;;24.43;17.87;;;;;;;5.67;89.40;98639.83;2055093;86;20988;-83
2022/09/25 03:17:40;;;;;;;26.63;16.43;;;;;;;5.60;89.24;98645.67;2054995;86;21312;-83
2022/09/25 03:20:41;;;;;;;28.33;18.07;;;;;;;5.53;89.19;98642.45;2055441;86;20967;-82
2022/09/25 03:23:41;;;;;;;30.13;17.90;;;;;;;5.46;89.35;98640.52;2055570;86;20945;-82
2022/09/25 03:26:42;;;;;;;33.07;20.47;;;;;;;5.46;89.61;98644.83;2055254;86;20984;-83
2022/09/25 03:29:43;;;;;;;30.10;20.60;;;;;;;5.45;90.33;98638.77;2055468;86;20913;-83
2022/09/25 03:32:43;;;;;;;30.50;18.97;;;;;;;5.54;91.00;98644.20;2089002;84;20988;-83
2022/09/25 03:35:43;;;;;;;25.50;19.90;;;;;;;5.59;90.55;98645.22;2099446;85;20944;-82
2022/09/25 03:38:44;;;;;;;26.23;18.77;;;;;;;5.57;90.36;98643.00;2099734;85;20912;-82
2022/09/25 03:41:44;;;;;;;30.43;21.03;;;;;;;5.53;90.20;98649.34;2099294;85;20999;-83
2022/09/25 03:44:44;;;;;;;31.43;20.77;;;;;;;5.58;91.01;98652.94;2099358;85;21383;-84
2022/09/25 03:47:45;;;;;;;25.53;19.57;;;;;;;5.62;91.18;98647.89;2099672;85;20944;-84
2022/09/25 03:50:45;;;;;;;32.43;21.00;;;;;;;5.68;91.30;98648.06;2099958;85;20936;-83
2022/09/25 03:53:45;;;;;;;35.13;20.53;;;;;;;5.72;90.77;98636.95;2099713;85;20937;-84
2022/09/25 03:56:46;;;;;;;29.07;20.30;;;;;;;5.72;90.77;98636.95;2099829;85;20968;-83
2022/09/25 03:59:46;;;;;;;28.77;20.57;;;;;;;5.75;90.60;98635.74;2100186;85;20941;-84
2022/09/25 04:02:47;;;;;;;28.53;19.77;;;;;;;5.72;90.59;98630.48;2100021;85;21415;-83
2022/09/25 04:05:47;;;;;;;26.90;18.90;;;;;;;5.72;90.32;98630.48;2099811;85;20925;-83
2022/09/25 04:08:47;;;;;;;26.03;18.70;;;;;;;5.68;89.87;98632.52;2099297;85;20936;-84
2022/09/25 04:11:48;;;;;;;26.03;18.17;;;;;;;5.66;90.09;98635.91;2099590;85;20964;-83
2022/09/25 04:14:48;;;;;;;26.37;15.93;;;;;;;5.69;89.81;98634.28;2099432;85;20976;-85
2022/09/25 04:17:49;;;;;;;25.70;17.03;;;;;;;5.69;89.81;98634.28;2099436;85;20961;-84
2022/09/25 04:20:49;;;;;;;21.20;15.40;;;;;;;5.64;89.21;98630.69;2099315;85;21179;-84
2022/09/25 04:27:09;;;;;;;29.33;20.60;;;;;;;5.54;89.66;98637.73;2099101;85;20963;-83
2022/09/25 04:30:09;;;;;;;28.57;19.17;;;;;;;5.56;90.00;98637.36;2099091;85;21293;-82
2022/09/25 04:36:28;;;;;;;26.93;17.90;;;;;;;5.99;90.16;98638.56;2055337;87;20929;-84
2022/09/25 04:39:28;;;;;;;27.03;19.07;;;;;;;5.95;89.38;98625.07;2055128;87;20984;-83
2022/09/25 04:42:28;;;;;;;31.70;19.47;;;;;;;5.91;89.82;98620.64;2055163;87;20995;-84
2022/09/25 04:45:29;;;;;;;27.43;17.93;;;;;;;5.93;89.37;98622.86;2054901;86;20957;-82
2022/09/25 04:48:29;;;;;;;30.17;19.23;;;;;;;5.97;89.60;98624.69;2054527;87;21017;-84
2022/09/25 04:51:30;;;;;;;23.47;18.07;;;;;;;6.08;89.92;98629.77;2054819;87;20936;-84
2022/09/25 04:54:30;;;;;;;28.87;19.73;;;;;;;6.15;89.71;98629.09;2054958;87;20933;-84
2022/09/25 04:57:30;;;;;;;32.97;19.97;;;;;;;6.21;90.42;98627.08;2054851;86;20997;-83
2022/09/25 05:00:31;;;;;;;28.53;22.10;;;;;;;6.31;90.51;98627.77;2054600;87;20940;-83
2022/09/25 05:03:31;;;;;;;28.80;21.70;;;;;;;6.47;91.89;98631.61;2054271;87;21313;-83
2022/09/25 05:06:32;;;;;;;28.90;19.77;;;;;;;6.61;91.35;98625.05;2054344;87;20923;-82
2022/09/25 05:09:32;;;;;;;25.33;19.83;;;;;;;6.70;91.14;98622.66;2054760;87;20932;-82
2022/09/25 05:12:33;;;;;;;26.80;19.57;;;;;;;6.79;91.05;98626.77;2054925;87;21080;-83
2022/09/25 05:15:33;;;;;;;27.97;19.40;;;;;;;6.85;90.75;98623.44;2055518;87;20940;-83
2022/09/25 05:18:33;;;;;;;26.87;19.17;;;;;;;6.91;90.71;98630.06;2054321;87;20984;-82
2022/09/25 05:21:34;;;;;;;26.50;20.00;;;;;;;6.97;90.86;98635.43;2054214;87;21399;-82
2022/09/25 05:24:34;;;;;;;28.50;20.97;;;;;;;7.08;91.06;98639.14;2054959;87;20985;-83
2022/09/25 05:27:34;;;;;;;31.47;22.40;;;;;;;7.22;91.52;98635.55;2054614;87;20964;-82
2022/09/25 05:30:35;;;;;;;27.37;21.77;;;;;;;7.39;91.67;98639.38;2054456;87;20908;-83
2022/09/25 05:33:35;;;;;;;33.97;21.93;;;;;;;7.52;91.42;98636.19;2054145;86;20976;-83
2022/09/25 05:36:36;;;;;;;28.73;22.27;;;;;;;7.67;91.44;98637.80;2054361;87;20936;-83
2022/09/25 05:39:36;;;;;;;28.10;21.43;;;;;;;7.85;91.41;98635.14;2054570;87;20927;-83
2022/09/25 05:42:37;;;;;;;33.03;22.50;;;;;;;8.06;91.49;98626.44;2054634;87;21360;-84
2022/09/25 05:45:37;;;;;;;32.13;22.53;;;;;;;8.29;91.38;98626.84;2054766;87;20945;-83
2022/09/25 05:48:37;;;;;;;29.67;23.83;;;;;;;8.53;91.27;98630.32;2055115;87;20937;-84
2022/09/25 05:51:38;;;;;;;27.27;22.80;;;;;;;8.82;91.24;98637.32;2054735;87;20968;-82
2022/09/25 05:54:38;;;;;;;27.30;22.67;;;;;;;9.06;90.85;98636.38;2054813;87;20908;-83
2022/09/25 05:57:38;;;;;;;27.50;23.10;;;;;;;9.20;90.51;98625.73;2054526;87;20992;-83
2022/09/25 06:00:39;;;;;;;29.63;21.73;;;;;;;9.33;90.20;98633.28;2054740;87;20968;-83
2022/09/25 06:03:39;;;;;;;31.33;22.40;;;;;;;9.49;89.90;98627.84;2054858;87;20965;-83
2022/09/25 06:06:40;;;;;;;25.67;21.17;;;;;;;9.62;89.48;98627.17;2054972;87;20989;-83
2022/09/25 06:09:40;;;;;;;30.47;23.03;;;;;;;9.66;89.11;98632.87;2055101;87;21296;-83
2022/09/25 06:12:40;;;;;;;32.47;22.30;;;;;;;9.66;88.85;98636.78;2054808;87;21035;-83
2022/09/25 06:15:41;;;;;;;28.73;22.40;;;;;;;9.59;88.82;98634.95;2055024;87;20925;-82
2022/09/25 06:18:41;;;;;;;25.87;20.43;;;;;;;9.58;88.71;98632.77;2054620;87;20900;-82
2022/09/25 06:21:42;;;;;;;27.10;21.40;;;;;;;9.56;88.62;98639.70;2054559;87;21359;-82
2022/09/25 06:24:42;;;;;;;25.40;21.23;;;;;;;9.55;88.55;98639.68;2054615;87;20981;-82
2022/09/25 06:27:43;;;;;;;31.93;22.47;;;;;;;9.57;88.58;98631.03;2053700;86;21082;-82
2022/09/25 06:30:44;;;;;;;24.57;21.00;;;;;;;9.64;88.54;98637.61;2054159;87;21009;-82
2022/09/25 06:33:45;;;;;;;25.77;20.47;;;;;;;9.69;88.32;98633.33;2053700;86;20971;-82
2022/09/25 06:36:45;;;;;;;25.70;19.67;;;;;;;9.80;88.38;98629.12;2054419;87;20913;-82
2022/09/25 06:39:45;;;;;;;25.17;20.80;;;;;;;10.03;88.22;98625.45;2054153;87;21028;-83
2022/09/25 06:42:46;;;;;;;25.20;20.33;;;;;;;10.21;88.00;98629.16;2053982;87;21245;-83
2022/09/25 06:45:47;;;;;;;26.17;19.93;;;;;;;10.36;87.80;98617.99;2053962;87;21305;-83
2022/09/25 06:48:46;;;;;;;26.47;21.03;;;;;;;10.65;87.71;98620.87;2054007;87;20904;-82
2022/09/25 06:51:47;;;;;;;26.60;20.57;;;;;;;11.02;86.90;98614.61;2054114;86;20890;-82
2022/09/25 06:54:47;;;;;;;27.55;21.87;;;;;;;11.32;86.13;98622.66;2054091;87;20948;-82
2022/09/25 06:57:48;;;;;;;25.08;20.27;;;;;;;11.54;85.45;98621.02;2054201;87;20929;-83
2022/09/25 07:00:48;;;;;;;28.85;19.67;;;;;;;11.70;84.67;98618.91;2054067;87;20964;-82
2022/09/25 07:03:48;;;;;;;28.73;18.92;;;;;;;11.82;84.18;98622.47;2054191;87;21475;-82
2022/09/25 07:06:49;;;;;;;26.27;20.20;;;;;;;11.98;83.82;98623.83;2053963;87;20924;-83
2022/09/25 07:09:49;;;;;;;27.35;19.98;;;;;;;12.15;83.10;98616.05;2054439;87;20968;-83
2022/09/25 07:12:50;;;;;;;21.57;19.10;;;;;;;12.37;82.72;98613.02;2054523;87;21057;-83
2022/09/25 07:15:50;;;;;;;22.75;18.60;;;;;;;12.64;82.64;98614.34;2054924;86;21308;-82
2022/09/25 07:18:51;;;;;;;25.55;19.35;;;;;;;12.89;81.89;98615.64;2054458;87;20913;-82
2022/09/25 07:21:54;;;;;;;24.82;18.30;;;;;;;13.10;81.11;98615.64;2054814;87;20964;-82
2022/09/25 07:24:51;;;;;;;24.87;18.70;;;;;;;13.28;81.05;98614.76;2054699;86;21344;-81
2022/09/25 07:27:52;;;;;;;23.05;18.60;;;;;;;13.36;80.27;98611.23;2054528;87;20952;-83
2022/09/25 07:30:52;;;;;;;24.37;18.10;;;;;;;13.37;79.53;98615.61;2054436;87;20948;-82
2022/09/25 07:33:52;;;;;;;23.02;18.00;;;;;;;13.32;79.07;98621.30;2061473;86;21027;-82
2022/09/25 07:36:54;;;;;;;21.70;18.70;;;;;;;13.31;79.38;98623.48;2054793;86;20900;-83
2022/09/25 07:39:53;;;;;;;21.52;16.95;;;;;;;13.32;78.97;98617.37;2054441;86;20983;-82
2022/09/25 07:42:54;;;;;;;32.40;19.32;;;;;;;13.34;78.50;98614.30;2058068;86;21391;-83
2022/09/25 07:45:54;;;;;;;33.63;18.87;;;;;;;13.41;78.50;98619.09;2059613;86;20950;-83
2022/09/25 07:48:54;;;;;;;21.55;16.90;;;;;;;13.44;78.18;98620.83;2059532;86;20936;-83
2022/09/25 07:51:55;;;;;;;20.25;17.17;;;;;;;13.46;77.91;98621.70;2059505;86;20916;-82
2022/09/25 07:54:55;;;;;;;23.73;17.80;;;;;;;13.53;78.06;98622.11;2059701;87;21352;-83
2022/09/25 07:57:56;;;;;;;21.82;17.75;;;;;;;13.65;77.73;98617.69;2060146;86;20920;-83
2022/09/25 08:00:56;;;;;;;22.20;15.90;;;;;;;13.78;77.13;98620.26;2059586;87;20956;-82
2022/09/25 08:03:56;;;;;;;21.82;17.10;;;;;;;13.95;77.15;98621.08;2059973;86;20988;-82
2022/09/25 08:06:57;;;;;;;20.50;16.85;;;;;;;14.08;76.18;98624.07;2059942;86;21399;-83
2022/09/25 08:09:57;;;;;;;18.45;16.50;;;;;;;14.13;76.14;98619.66;2059751;86;20927;-83
2022/09/25 08:12:58;;;;;;;20.88;17.17;;;;;;;14.22;75.50;98616.11;2059686;86;21027;-81
2022/09/25 08:15:58;;;;;;;21.23;15.90;;;;;;;14.24;75.33;98616.97;2060054;86;20952;-83
2022/09/25 08:18:59;;;;;;;18.98;15.85;;;;;;;14.25;75.11;98616.09;2059709;87;20983;-82
2022/09/25 08:21:59;;;;;;;19.62;16.95;;;;;;;14.29;75.32;98613.44;2060007;86;20984;-82
2022/09/25 08:25:01;;;;;;;18.07;15.78;;;;;;;14.34;74.68;98618.22;2059537;86;20976;-83
2022/09/25 08:28:00;;;;;;;20.10;15.40;;;;;;;14.38;74.32;98611.19;2060523;86;20956;-83
2022/09/25 08:31:03;;;;;;;18.77;16.10;;;;;;;14.44;73.65;98614.24;2060133;86;21268;-82
2022/09/25 08:34:03;;;;;;;21.55;14.93;;;;;;;14.52;74.04;98613.30;2062718;86;20921;-82
2022/09/25 08:37:03;;;;;;;20.48;15.80;;;;;;;14.64;73.89;98606.64;2072541;85;21291;-83
2022/09/25 08:40:03;;;;;;;20.43;14.80;;;;;;;14.74;73.58;98602.21;2039753;87;20960;-82
2022/09/25 08:43:04;;;;;;;20.30;15.55;;;;;;;14.85;72.85;98594.23;2114381;84;20999;-82
2022/09/25 08:49:25;;;;;;;18.85;14.43;;;;;;;15.05;71.74;98588.34;2115092;84;20952;-83
2022/09/25 08:52:23;;;;;;;17.27;13.88;;;;;;;15.14;70.78;98588.24;2115027;84;20988;-83
2022/09/25 08:55:24;;;;;;;17.65;13.35;;;;;;;15.26;70.82;98589.88;2114736;84;20940;-83
2022/09/25 08:58:24;;;;;;;17.05;12.53;;;;;;;15.47;70.41;98590.07;2115012;84;20936;-83
2022/09/25 09:01:25;;;;;;;17.50;13.15;;;;;;;15.62;69.08;98585.13;2114636;84;20980;-82
2022/09/25 09:04:25;;;;;;;15.40;12.20;;;;;;;15.71;69.27;98587.65;2114761;84;21356;-83
2022/09/25 09:07:25;;;;;;;14.98;11.63;;;;;;;15.87;68.67;98577.34;2115128;84;20984;-83
2022/09/25 09:10:27;;;;;;;17.25;11.95;;;;;;;15.91;68.27;98575.97;2114774;84;20920;-82
2022/09/25 09:13:26;;;;;;;14.07;11.90;;;;;;;15.97;67.81;98572.82;2114298;84;21035;-82
2022/09/25 09:16:27;;;;;;;14.10;10.80;;;;;;;16.01;67.93;98574.52;2114781;84;21145;-83
2022/09/25 09:19:27;;;;;;;14.33;11.22;;;;;;;16.06;67.04;98573.56;2115802;84;20939;-84
2022/09/25 09:22:28;;;;;;;14.35;12.68;;;;;;;15.98;66.94;98575.87;2116125;84;20971;-84
2022/09/25 09:25:28;;;;;;;13.80;12.40;;;;;;;16.06;67.12;98573.56;2115769;84;20959;-84
2022/09/25 09:28:29;;;;;;;19.87;12.13;;;;;;;16.17;66.84;98566.38;2115557;84;20924;-83
2022/09/25 09:31:29;;;;;;;17.37;11.60;;;;;;;16.23;66.54;98567.59;2115645;84;20936;-84
2022/09/25 09:34:30;;;;;;;15.55;12.20;;;;;;;16.28;66.14;98566.21;2097396;84;20961;-83
2022/09/25 09:37:30;;;;;;;14.40;11.25;;;;;;;16.33;65.98;98563.50;2094365;84;20977;-84
2022/09/25 09:40:30;;;;;;;42.03;12.85;;;;;;;16.34;65.83;98559.53;2091973;84;21335;-82
2022/09/25 09:43:31;;;;;;;19.32;12.40;;;;;;;16.44;65.84;98558.48;2066382;85;21087;-83
2022/09/25 09:46:31;;;;;;;13.83;11.28;;;;;;;16.52;65.33;98554.45;2064477;86;20952;-82
2022/09/25 09:49:32;;;;;;;16.82;12.60;;;;;;;16.58;65.04;98553.47;2064706;86;20948;-82
2022/09/25 09:52:33;;;;;;;13.38;11.65;;;;;;;16.62;65.26;98549.89;2064523;86;20944;-83
2022/09/25 09:55:33;;;;;;;15.05;11.97;;;;;;;16.70;65.43;98547.58;2064488;86;20940;-83
2022/09/25 09:58:33;;;;;;;17.37;12.18;;;;;;;16.76;65.28;98547.47;2064387;86;20936;-84
2022/09/25 10:01:33;;;;;;;13.98;12.47;;;;;;;16.86;64.83;98548.17;2064305;86;20955;-83
2022/09/25 10:04:34;;;;;;;16.73;13.15;;;;;;;16.86;63.66;98543.77;2064528;86;21295;-83
2022/09/25 10:07:34;;;;;;;14.63;11.70;;;;;;;16.76;64.65;98545.28;2064382;86;20944;-82
2022/09/25 10:10:34;;;;;;;13.58;11.43;;;;;;;16.79;64.75;98544.78;2064285;86;20897;-83
2022/09/25 10:13:35;;;;;;;19.35;13.32;;;;;;;16.85;64.79;98553.89;2064048;86;21007;-82
2022/09/25 10:16:35;;;;;;;15.32;13.68;;;;;;;16.91;64.48;98555.55;2064312;86;21363;-84
2022/09/25 10:19:36;;;;;;;16.35;14.60;;;;;;;16.93;64.39;98559.03;2064188;86;20987;-82
2022/09/25 10:22:36;;;;;;;18.82;14.10;;;;;;;16.93;64.50;98554.20;2064401;86;20956;-84
2022/09/25 10:25:37;;;;;;;16.25;14.50;;;;;;;16.97;64.26;98558.08;2064300;86;20964;-83
2022/09/25 10:28:37;;;;;;;18.85;15.15;;;;;;;16.99;64.27;98547.05;2064981;86;20944;-84
2022/09/25 10:31:37;;;;;;;17.52;14.55;;;;;;;17.07;64.66;98548.22;2064629;86;21428;-84
2022/09/25 10:34:40;;;;;;;16.55;13.38;;;;;;;17.19;64.50;98544.91;2072651;85;21013;-84
2022/09/25 10:37:38;;;;;;;16.57;14.53;;;;;;;17.30;64.19;98540.73;2073088;86;20936;-82
2022/09/25 10:40:39;;;;;;;16.48;14.47;;;;;;;17.40;64.07;98533.54;2039127;87;21040;-83
2022/09/25 10:43:39;;;;;;;15.08;12.85;;;;;;;17.49;64.59;98533.34;2084939;85;21414;-82
2022/09/25 10:50:10;;;;;;;17.50;13.60;;;;;;;17.66;63.62;98529.03;2078616;85;21315;-83
2022/09/25 10:53:10;;;;;;;15.95;12.47;;;;;;;17.73;63.33;98526.26;2039437;87;20952;-83
2022/09/25 10:56:11;;;;;;;14.25;12.03;;;;;;;17.96;62.97;98518.27;2074123;85;21307;-83
2022/09/25 10:59:13;;;;;;;14.35;12.50;;;;;;;18.17;61.33;98518.22;2037708;87;20960;-83
2022/09/25 11:02:13;;;;;;;12.85;11.53;;;;;;;18.25;61.56;98514.98;2073578;86;21014;-82
2022/09/25 11:05:12;;;;;;;13.68;11.03;;;;;;;18.71;61.13;98505.47;2039908;87;21008;-84
2022/09/25 11:08:14;;;;;;;15.78;10.95;;;;;;;18.92;59.68;98506.22;2074478;85;21320;-83
2022/09/25 11:11:13;;;;;;;15.50;9.23;;;;;;;18.80;58.99;98507.87;2040127;87;20993;-83
2022/09/25 11:14:13;;;;;;;37.58;12.15;;;;;;;18.62;59.05;98496.45;2074459;85;21013;-83
2022/09/25 11:17:14;;;;;;;12.30;9.90;;;;;;;18.58;59.28;98494.31;2038074;87;20948;-82
2022/09/25 11:20:17;;;;;;;11.55;9.53;;;;;;;18.56;58.60;98497.91;2073795;86;20960;-83
2022/09/25 11:23:15;;;;;;;13.35;8.98;;;;;;;18.57;58.79;98497.00;2040627;87;20964;-83
2022/09/25 11:26:15;;;;;;;13.10;8.58;;;;;;;18.71;58.22;98484.32;2082002;85;20991;-83
2022/09/25 11:29:15;;;;;;;10.10;8.95;;;;;;;18.88;57.23;98488.70;2038070;87;20971;-83
2022/09/25 11:32:16;;;;;;;10.98;9.85;;;;;;;18.98;57.36;98489.31;2073891;86;20939;-83
2022/09/25 11:35:16;;;;;;;12.85;9.78;;;;;;;19.08;57.10;98491.70;2026257;87;21364;-81
2022/09/25 11:38:17;;;;;;;13.38;9.48;;;;;;;19.15;56.55;98491.07;2100633;84;20968;-83
2022/09/25 11:41:21;;;;;;;15.08;10.18;;;;;;;19.13;56.05;98486.73;2100139;85;20971;-83
2022/09/25 11:44:17;;;;;;;10.95;9.93;;;;;;;19.16;57.49;98484.87;2099271;85;21356;-83
2022/09/25 11:47:18;;;;;;;17.52;10.72;;;;;;;19.29;56.61;98486.70;2099638;85;20936;-81
2022/09/25 11:50:18;;;;;;;12.50;9.95;;;;;;;19.32;56.61;98486.62;2099446;85;20988;-83
2022/09/25 11:53:18;;;;;;;12.70;11.08;;;;;;;19.29;56.58;98474.80;2099441;85;20955;-83
2022/09/25 11:56:19;;;;;;;12.78;10.72;;;;;;;19.16;56.67;98471.64;2099523;85;20912;-83
2022/09/25 11:59:20;;;;;;;13.25;10.53;;;;;;;19.02;57.42;98475.96;2099550;85;20973;-84
2022/09/25 12:02:20;;;;;;;16.00;10.00;;;;;;;19.04;57.46;98473.27;2099273;85;20972;-83
2022/09/25 12:05:21;;;;;;;11.68;10.48;;;;;;;19.17;57.94;98476.47;2099708;85;21317;-84
2022/09/25 12:08:22;;;;;;;11.68;10.35;;;;;;;19.25;57.17;98471.83;2099460;85;21281;-83
2022/09/25 12:11:21;;;;;;;10.90;9.70;;;;;;;19.24;57.14;98476.71;2099037;85;20973;-83
2022/09/25 12:14:21;;;;;;;10.18;9.18;;;;;;;19.26;57.74;98481.05;2099499;85;20980;-82
2022/09/25 12:17:22;;;;;;;11.00;9.43;;;;;;;19.27;57.61;98489.39;2098913;85;20960;-83
2022/09/25 12:20:22;;;;;;;10.23;9.25;;;;;;;19.16;56.84;98493.26;2098972;85;20964;-82
2022/09/25 12:23:24;;;;;;;9.80;8.80;;;;;;;18.92;57.29;98495.64;2099164;85;20951;-83
2022/09/25 12:26:23;;;;;;;9.70;8.40;;;;;;;18.69;57.50;98484.36;2099597;85;20964;-84
2022/09/25 12:29:27;;;;;;;13.60;8.25;;;;;;;18.58;58.46;98474.49;2099620;85;20965;-83
2022/09/25 12:32:24;;;;;;;12.90;8.75;;;;;;;18.55;58.03;98463.13;2099068;85;20929;-83
2022/09/25 12:35:25;;;;;;;10.90;8.90;;;;;;;18.56;58.27;98456.94;2098888;85;20984;-83
2022/09/25 12:38:25;;;;;;;13.98;9.60;;;;;;;18.57;58.56;98454.70;2099014;85;21325;-83
2022/09/25 12:41:28;;;;;;;12.88;9.93;;;;;;;18.55;58.30;98456.52;2098847;85;20992;-83
2022/09/25 12:44:26;;;;;;;10.35;9.25;;;;;;;18.44;58.34;98444.91;2098753;85;20976;-83
2022/09/25 12:47:26;;;;;;;12.03;8.80;;;;;;;18.43;58.79;98433.47;2098848;85;20956;-83
2022/09/25 12:50:30;;;;;;;9.60;8.55;;;;;;;18.40;58.56;98433.55;2099292;85;20975;-83
2022/09/25 12:53:30;;;;;;;10.20;9.13;;;;;;;18.30;58.95;98433.83;2099140;85;21373;-83
2022/09/25 12:56:30;;;;;;;11.03;9.20;;;;;;;18.18;59.47;98439.39;2099144;85;20920;-83
2022/09/25 12:59:32;;;;;;;13.58;10.15;;;;;;;18.05;59.78;98446.75;2098921;85;20949;-83
2022/09/25 13:02:31;;;;;;;12.10;9.30;;;;;;;17.77;60.63;98442.59;2098962;85;21336;-82
2022/09/25 13:05:32;;;;;;;10.13;9.13;;;;;;;17.64;61.33;98438.01;2099110;85;20921;-82
2022/09/25 13:08:33;;;;;;;13.48;10.13;;;;;;;17.53;61.77;98434.74;2099419;85;20905;-83
2022/09/25 13:11:32;;;;;;;15.43;9.68;;;;;;;17.43;62.48;98441.13;2099334;85;21272;-83
2022/09/25 13:14:33;;;;;;;15.10;10.48;;;;;;;17.37;63.06;98430.71;2099438;85;20992;-83
2022/09/25 13:17:33;;;;;;;12.28;10.80;;;;;;;17.26;63.58;98422.13;2099998;85;20976;-84
2022/09/25 13:20:35;;;;;;;18.27;10.43;;;;;;;17.27;63.86;98419.91;2099428;85;21005;-84
2022/09/25 13:23:34;;;;;;;11.95;10.10;;;;;;;17.28;64.11;98417.69;2099664;85;20932;-84
2022/09/25 13:26:34;;;;;;;13.70;9.73;;;;;;;17.22;64.27;98417.38;2099207;85;21296;-84
2022/09/25 13:29:35;;;;;;;12.28;10.53;;;;;;;17.24;63.96;98412.06;2099095;85;20941;-82
2022/09/25 13:32:37;;;;;;;11.83;10.08;;;;;;;17.37;63.90;98409.61;2099024;85;20889;-82
2022/09/25 13:35:35;;;;;;;13.20;9.88;;;;;;;17.51;63.76;98400.92;2070193;85;20975;-83
2022/09/25 13:41:54;;;;;;;12.55;9.23;;;;;;;17.72;62.31;98405.73;2075463;86;20979;-83
2022/09/25 13:44:55;;;;;;;17.02;10.30;;;;;;;17.72;62.12;98401.78;2070687;84;20975;-85
2022/09/25 13:47:55;;;;;;;16.48;11.20;;;;;;;17.82;61.60;98402.42;2067852;86;20907;-82
2022/09/25 13:50:56;;;;;;;16.40;11.53;;;;;;;17.90;62.10;98399.14;2068010;85;20893;-82
2022/09/25 13:54:02;;;;;;;14.18;10.25;;;;;;;17.98;62.21;98401.59;2067536;85;20916;-83
2022/09/25 13:56:59;;;;;;;12.18;9.43;;;;;;;17.94;62.03;98398.16;2068406;85;20928;-83
2022/09/25 14:00:00;;;;;;;14.05;10.25;;;;;;;17.85;62.00;98401.03;2068127;86;20956;-83
2022/09/25 14:03:01;;;;;;;13.32;10.35;;;;;;;17.72;62.70;98400.45;2068231;85;21428;-82
2022/09/25 14:06:01;;;;;;;11.05;9.95;;;;;;;17.68;62.85;98394.84;2067667;86;20979;-83
2022/09/25 14:09:03;;;;;;;14.00;10.78;;;;;;;17.67;62.79;98395.73;2067668;86;20971;-83
2022/09/25 14:12:02;;;;;;;13.20;10.75;;;;;;;17.74;62.82;98394.69;2068018;85;20923;-83
2022/09/25 14:15:03;;;;;;;13.25;10.13;;;;;;;17.79;63.11;98396.77;2067768;85;21063;-83
2022/09/25 14:18:03;;;;;;;11.70;10.53;;;;;;;17.74;63.37;98398.65;2067762;86;20979;-83